sensor_id;sensor_type;location;lat;lon;timestamp;P1;durP1;ratioP1;P2;durP2;ratioP2
12435;SDS011;6282;51.440;6.938;2023-05-10T00:00:07;6.07;;;4.93;;
12435;SDS011;6282;51.440;6.938;2023-05-10T00:02:35;4.85;;;4.28;;
12435;SDS011;6282;51.440;6.938;2023-05-10T00:05:02;7.63;;;5.05;;
12435;SDS011;6282;51.440;6.938;2023-05-10T00:07:31;6.53;;;5.80;;
12435;SDS011;6282;51.440;6.938;2023-05-10T00:09:58;6.60;;;4.95;;
12435;SDS011;6282;51.440;6.938;2023-05-10T00:12:24;6.57;;;5.10;;
12435;SDS011;6282;51.440;6.938;2023-05-10T00:14:51;6.80;;;5.03;;
12435;SDS011;6282;51.440;6.938;2023-05-10T00:17:18;7.80;;;5.50;;
12435;SDS011;6282;51.440;6.938;2023-05-10T00:19:45;7.78;;;5.85;;
12435;SDS011;6282;51.440;6.938;2023-05-10T00:22:12;7.72;;;5.47;;
12435;SDS011;6282;51.440;6.938;2023-05-10T00:24:40;8.85;;;6.25;;
12435;SDS011;6282;51.440;6.938;2023-05-10T00:27:06;9.45;;;6.28;;
12435;SDS011;6282;51.440;6.938;2023-05-10T00:29:33;7.47;;;5.68;;
12435;SDS011;6282;51.440;6.938;2023-05-10T00:32:00;7.88;;;6.07;;
12435;SDS011;6282;51.440;6.938;2023-05-10T00:34:27;7.28;;;5.55;;
12435;SDS011;6282;51.440;6.938;2023-05-10T00:36:53;9.68;;;6.32;;
12435;SDS011;6282;51.440;6.938;2023-05-10T00:39:21;8.05;;;6.20;;
12435;SDS011;6282;51.440;6.938;2023-05-10T00:41:49;9.45;;;6.35;;
12435;SDS011;6282;51.440;6.938;2023-05-10T00:44:16;6.82;;;5.70;;
12435;SDS011;6282;51.440;6.938;2023-05-10T00:46:43;7.80;;;5.85;;
12435;SDS011;6282;51.440;6.938;2023-05-10T00:49:10;7.05;;;5.78;;
12435;SDS011;6282;51.440;6.938;2023-05-10T00:51:37;7.18;;;5.63;;
12435;SDS011;6282;51.440;6.938;2023-05-10T00:54:04;8.57;;;6.07;;
12435;SDS011;6282;51.440;6.938;2023-05-10T00:56:31;7.95;;;6.45;;
12435;SDS011;6282;51.440;6.938;2023-05-10T00:58:59;8.00;;;6.07;;
12435;SDS011;6282;51.440;6.938;2023-05-10T01:01:27;8.98;;;5.85;;
12435;SDS011;6282;51.440;6.938;2023-05-10T01:03:54;7.22;;;5.90;;
12435;SDS011;6282;51.440;6.938;2023-05-10T01:06:22;8.38;;;6.43;;
12435;SDS011;6282;51.440;6.938;2023-05-10T01:08:48;7.72;;;5.78;;
12435;SDS011;6282;51.440;6.938;2023-05-10T01:11:15;7.03;;;5.63;;
12435;SDS011;6282;51.440;6.938;2023-05-10T01:13:43;9.57;;;7.10;;
12435;SDS011;6282;51.440;6.938;2023-05-10T01:16:17;8.68;;;6.78;;
12435;SDS011;6282;51.440;6.938;2023-05-10T01:18:44;10.77;;;6.97;;
12435;SDS011;6282;51.440;6.938;2023-05-10T01:21:14;9.20;;;7.07;;
12435;SDS011;6282;51.440;6.938;2023-05-10T01:23:56;9.88;;;7.47;;
12435;SDS011;6282;51.440;6.938;2023-05-10T01:30:02;11.10;;;7.45;;
12435;SDS011;6282;51.440;6.938;2023-05-10T01:32:44;11.00;;;7.45;;
12435;SDS011;6282;51.440;6.938;2023-05-10T01:35:17;11.18;;;7.10;;
12435;SDS011;6282;51.440;6.938;2023-05-10T01:37:50;10.95;;;7.72;;
12435;SDS011;6282;51.440;6.938;2023-05-10T01:40:25;10.45;;;7.30;;
12435;SDS011;6282;51.440;6.938;2023-05-10T01:42:58;9.30;;;6.38;;
12435;SDS011;6282;51.440;6.938;2023-05-10T01:45:28;11.93;;;7.80;;
12435;SDS011;6282;51.440;6.938;2023-05-10T01:48:03;11.02;;;8.23;;
12435;SDS011;6282;51.440;6.938;2023-05-10T01:50:32;13.75;;;7.53;;
12435;SDS011;6282;51.440;6.938;2023-05-10T01:53:02;12.32;;;8.23;;
12435;SDS011;6282;51.440;6.938;2023-05-10T01:55:34;10.73;;;7.93;;
12435;SDS011;6282;51.440;6.938;2023-05-10T01:58:10;13.35;;;9.13;;
12435;SDS011;6282;51.440;6.938;2023-05-10T02:00:42;12.65;;;8.50;;
12435;SDS011;6282;51.440;6.938;2023-05-10T02:03:12;14.18;;;8.75;;
12435;SDS011;6282;51.440;6.938;2023-05-10T02:05:41;10.32;;;7.53;;
12435;SDS011;6282;51.440;6.938;2023-05-10T02:08:09;15.98;;;9.65;;
12435;SDS011;6282;51.440;6.938;2023-05-10T02:10:37;13.90;;;8.50;;
12435;SDS011;6282;51.440;6.938;2023-05-10T02:13:05;11.50;;;8.00;;
12435;SDS011;6282;51.440;6.938;2023-05-10T02:15:33;10.55;;;7.50;;
12435;SDS011;6282;51.440;6.938;2023-05-10T02:18:02;13.32;;;8.18;;
12435;SDS011;6282;51.440;6.938;2023-05-10T02:20:32;11.95;;;7.60;;
12435;SDS011;6282;51.440;6.938;2023-05-10T02:23:00;11.98;;;6.97;;
12435;SDS011;6282;51.440;6.938;2023-05-10T02:25:29;10.10;;;6.57;;
12435;SDS011;6282;51.440;6.938;2023-05-10T02:27:57;9.75;;;6.90;;
12435;SDS011;6282;51.440;6.938;2023-05-10T02:30:27;12.15;;;7.15;;
12435;SDS011;6282;51.440;6.938;2023-05-10T02:32:55;10.50;;;7.82;;
12435;SDS011;6282;51.440;6.938;2023-05-10T02:35:22;12.07;;;7.70;;
12435;SDS011;6282;51.440;6.938;2023-05-10T02:37:51;12.57;;;8.25;;
12435;SDS011;6282;51.440;6.938;2023-05-10T02:40:19;11.45;;;6.78;;
12435;SDS011;6282;51.440;6.938;2023-05-10T02:42:48;13.20;;;8.30;;
12435;SDS011;6282;51.440;6.938;2023-05-10T02:45:19;11.48;;;7.68;;
12435;SDS011;6282;51.440;6.938;2023-05-10T02:47:49;12.25;;;8.13;;
12435;SDS011;6282;51.440;6.938;2023-05-10T02:50:16;11.82;;;7.47;;
12435;SDS011;6282;51.440;6.938;2023-05-10T02:52:44;9.60;;;6.90;;
12435;SDS011;6282;51.440;6.938;2023-05-10T02:55:15;8.13;;;6.38;;
12435;SDS011;6282;51.440;6.938;2023-05-10T02:57:46;9.85;;;6.65;;
12435;SDS011;6282;51.440;6.938;2023-05-10T03:00:18;10.48;;;6.85;;
12435;SDS011;6282;51.440;6.938;2023-05-10T03:02:45;9.93;;;7.05;;
12435;SDS011;6282;51.440;6.938;2023-05-10T03:05:12;9.45;;;5.95;;
12435;SDS011;6282;51.440;6.938;2023-05-10T03:07:39;10.77;;;7.00;;
12435;SDS011;6282;51.440;6.938;2023-05-10T03:10:06;9.50;;;7.20;;
12435;SDS011;6282;51.440;6.938;2023-05-10T03:12:40;9.57;;;6.88;;
12435;SDS011;6282;51.440;6.938;2023-05-10T03:15:19;12.65;;;7.65;;
12435;SDS011;6282;51.440;6.938;2023-05-10T03:18:01;9.85;;;6.53;;
12435;SDS011;6282;51.440;6.938;2023-05-10T03:20:32;10.85;;;7.03;;
12435;SDS011;6282;51.440;6.938;2023-05-10T03:23:07;12.30;;;7.85;;
12435;SDS011;6282;51.440;6.938;2023-05-10T03:25:38;9.95;;;6.68;;
12435;SDS011;6282;51.440;6.938;2023-05-10T03:28:10;12.52;;;7.72;;
12435;SDS011;6282;51.440;6.938;2023-05-10T03:30:38;13.02;;;8.10;;
12435;SDS011;6282;51.440;6.938;2023-05-10T03:33:06;12.00;;;7.78;;
12435;SDS011;6282;51.440;6.938;2023-05-10T03:35:33;9.63;;;6.50;;
12435;SDS011;6282;51.440;6.938;2023-05-10T03:38:00;14.52;;;7.70;;
12435;SDS011;6282;51.440;6.938;2023-05-10T03:40:27;14.00;;;8.65;;
12435;SDS011;6282;51.440;6.938;2023-05-10T03:42:56;13.43;;;8.52;;
12435;SDS011;6282;51.440;6.938;2023-05-10T03:45:25;14.93;;;9.10;;
12435;SDS011;6282;51.440;6.938;2023-05-10T03:47:52;15.38;;;9.52;;
12435;SDS011;6282;51.440;6.938;2023-05-10T03:50:19;15.07;;;8.63;;
12435;SDS011;6282;51.440;6.938;2023-05-10T03:52:46;13.70;;;8.40;;
12435;SDS011;6282;51.440;6.938;2023-05-10T03:55:12;14.43;;;8.73;;
12435;SDS011;6282;51.440;6.938;2023-05-10T03:57:39;13.02;;;9.00;;
12435;SDS011;6282;51.440;6.938;2023-05-10T04:00:06;16.00;;;10.45;;
12435;SDS011;6282;51.440;6.938;2023-05-10T04:02:36;15.60;;;9.02;;
12435;SDS011;6282;51.440;6.938;2023-05-10T04:05:02;18.48;;;10.05;;
12435;SDS011;6282;51.440;6.938;2023-05-10T04:07:30;16.92;;;9.63;;
12435;SDS011;6282;51.440;6.938;2023-05-10T04:09:57;15.25;;;10.25;;
12435;SDS011;6282;51.440;6.938;2023-05-10T04:12:23;16.20;;;10.20;;
12435;SDS011;6282;51.440;6.938;2023-05-10T04:14:50;16.88;;;10.52;;
12435;SDS011;6282;51.440;6.938;2023-05-10T04:17:17;17.17;;;9.60;;
12435;SDS011;6282;51.440;6.938;2023-05-10T04:19:45;17.75;;;10.93;;
12435;SDS011;6282;51.440;6.938;2023-05-10T04:22:12;14.98;;;10.05;;
12435;SDS011;6282;51.440;6.938;2023-05-10T04:24:39;17.00;;;9.98;;
12435;SDS011;6282;51.440;6.938;2023-05-10T04:27:05;17.17;;;10.18;;
12435;SDS011;6282;51.440;6.938;2023-05-10T04:29:32;21.48;;;11.90;;
12435;SDS011;6282;51.440;6.938;2023-05-10T04:31:59;18.23;;;11.38;;
12435;SDS011;6282;51.440;6.938;2023-05-10T04:34:26;19.27;;;11.55;;
12435;SDS011;6282;51.440;6.938;2023-05-10T04:36:54;18.52;;;11.48;;
12435;SDS011;6282;51.440;6.938;2023-05-10T04:39:20;17.20;;;9.75;;
12435;SDS011;6282;51.440;6.938;2023-05-10T04:41:47;23.13;;;12.30;;
12435;SDS011;6282;51.440;6.938;2023-05-10T04:44:14;20.70;;;12.05;;
12435;SDS011;6282;51.440;6.938;2023-05-10T04:46:41;21.50;;;12.02;;
12435;SDS011;6282;51.440;6.938;2023-05-10T04:49:08;19.70;;;12.05;;
12435;SDS011;6282;51.440;6.938;2023-05-10T04:51:34;22.58;;;12.95;;
12435;SDS011;6282;51.440;6.938;2023-05-10T04:54:03;20.35;;;11.18;;
12435;SDS011;6282;51.440;6.938;2023-05-10T04:56:29;18.75;;;11.82;;
12435;SDS011;6282;51.440;6.938;2023-05-10T04:58:56;18.75;;;11.75;;
12435;SDS011;6282;51.440;6.938;2023-05-10T05:01:23;19.65;;;11.45;;
12435;SDS011;6282;51.440;6.938;2023-05-10T05:03:50;20.67;;;11.95;;
12435;SDS011;6282;51.440;6.938;2023-05-10T05:06:17;22.58;;;12.02;;
12435;SDS011;6282;51.440;6.938;2023-05-10T05:08:45;21.98;;;11.85;;
12435;SDS011;6282;51.440;6.938;2023-05-10T05:11:15;20.58;;;13.02;;
12435;SDS011;6282;51.440;6.938;2023-05-10T05:13:42;22.13;;;13.13;;
12435;SDS011;6282;51.440;6.938;2023-05-10T05:16:09;20.52;;;12.00;;
12435;SDS011;6282;51.440;6.938;2023-05-10T05:18:37;18.75;;;12.40;;
12435;SDS011;6282;51.440;6.938;2023-05-10T05:21:12;17.92;;;11.30;;
12435;SDS011;6282;51.440;6.938;2023-05-10T05:23:40;18.38;;;12.05;;
12435;SDS011;6282;51.440;6.938;2023-05-10T05:26:06;21.23;;;12.00;;
12435;SDS011;6282;51.440;6.938;2023-05-10T05:28:35;20.40;;;12.73;;
12435;SDS011;6282;51.440;6.938;2023-05-10T05:31:02;20.20;;;13.82;;
12435;SDS011;6282;51.440;6.938;2023-05-10T05:33:29;23.33;;;13.68;;
12435;SDS011;6282;51.440;6.938;2023-05-10T05:35:56;18.73;;;12.13;;
12435;SDS011;6282;51.440;6.938;2023-05-10T05:38:23;19.38;;;12.32;;
12435;SDS011;6282;51.440;6.938;2023-05-10T05:40:50;20.98;;;12.35;;
12435;SDS011;6282;51.440;6.938;2023-05-10T05:43:16;24.25;;;13.40;;
12435;SDS011;6282;51.440;6.938;2023-05-10T05:45:44;23.88;;;12.57;;
12435;SDS011;6282;51.440;6.938;2023-05-10T05:48:11;20.25;;;13.27;;
12435;SDS011;6282;51.440;6.938;2023-05-10T05:50:38;19.50;;;12.95;;
12435;SDS011;6282;51.440;6.938;2023-05-10T05:53:05;22.92;;;13.25;;
12435;SDS011;6282;51.440;6.938;2023-05-10T05:55:31;18.48;;;11.20;;
12435;SDS011;6282;51.440;6.938;2023-05-10T05:57:59;22.73;;;12.85;;
12435;SDS011;6282;51.440;6.938;2023-05-10T06:00:26;17.50;;;11.52;;
12435;SDS011;6282;51.440;6.938;2023-05-10T06:02:54;21.05;;;12.00;;
12435;SDS011;6282;51.440;6.938;2023-05-10T06:05:21;18.15;;;10.98;;
12435;SDS011;6282;51.440;6.938;2023-05-10T06:07:48;22.63;;;12.75;;
12435;SDS011;6282;51.440;6.938;2023-05-10T06:10:15;19.83;;;12.45;;
12435;SDS011;6282;51.440;6.938;2023-05-10T06:12:41;23.52;;;12.35;;
12435;SDS011;6282;51.440;6.938;2023-05-10T06:15:09;18.73;;;11.63;;
12435;SDS011;6282;51.440;6.938;2023-05-10T06:17:36;19.98;;;11.88;;
12435;SDS011;6282;51.440;6.938;2023-05-10T06:20:05;20.23;;;12.95;;
12435;SDS011;6282;51.440;6.938;2023-05-10T06:22:33;18.25;;;11.38;;
12435;SDS011;6282;51.440;6.938;2023-05-10T06:25:00;23.60;;;12.63;;
12435;SDS011;6282;51.440;6.938;2023-05-10T06:27:27;25.25;;;12.85;;
12435;SDS011;6282;51.440;6.938;2023-05-10T06:29:54;26.00;;;13.68;;
12435;SDS011;6282;51.440;6.938;2023-05-10T06:32:21;23.80;;;12.50;;
12435;SDS011;6282;51.440;6.938;2023-05-10T06:34:48;25.48;;;14.10;;
12435;SDS011;6282;51.440;6.938;2023-05-10T06:37:16;23.85;;;13.88;;
12435;SDS011;6282;51.440;6.938;2023-05-10T06:39:43;21.63;;;11.95;;
12435;SDS011;6282;51.440;6.938;2023-05-10T06:42:09;26.42;;;13.52;;
12435;SDS011;6282;51.440;6.938;2023-05-10T06:44:36;21.35;;;12.80;;
12435;SDS011;6282;51.440;6.938;2023-05-10T06:47:03;25.13;;;14.40;;
12435;SDS011;6282;51.440;6.938;2023-05-10T06:49:30;26.52;;;14.40;;
12435;SDS011;6282;51.440;6.938;2023-05-10T06:51:57;24.42;;;13.52;;
12435;SDS011;6282;51.440;6.938;2023-05-10T06:54:25;29.85;;;15.07;;
12435;SDS011;6282;51.440;6.938;2023-05-10T06:56:52;28.10;;;14.82;;
12435;SDS011;6282;51.440;6.938;2023-05-10T06:59:18;23.40;;;12.75;;
12435;SDS011;6282;51.440;6.938;2023-05-10T07:01:46;24.80;;;14.35;;
12435;SDS011;6282;51.440;6.938;2023-05-10T07:04:13;24.58;;;13.82;;
12435;SDS011;6282;51.440;6.938;2023-05-10T07:06:40;28.38;;;15.45;;
12435;SDS011;6282;51.440;6.938;2023-05-10T07:09:06;27.70;;;14.75;;
12435;SDS011;6282;51.440;6.938;2023-05-10T07:11:35;26.05;;;14.60;;
12435;SDS011;6282;51.440;6.938;2023-05-10T07:14:02;26.02;;;13.57;;
12435;SDS011;6282;51.440;6.938;2023-05-10T07:16:29;21.85;;;12.25;;
12435;SDS011;6282;51.440;6.938;2023-05-10T07:18:56;19.27;;;11.52;;
12435;SDS011;6282;51.440;6.938;2023-05-10T07:21:22;21.92;;;12.05;;
12435;SDS011;6282;51.440;6.938;2023-05-10T07:23:50;22.67;;;11.73;;
12435;SDS011;6282;51.440;6.938;2023-05-10T07:26:16;20.80;;;12.35;;
12435;SDS011;6282;51.440;6.938;2023-05-10T07:28:45;22.05;;;12.68;;
12435;SDS011;6282;51.440;6.938;2023-05-10T07:31:11;23.70;;;12.98;;
12435;SDS011;6282;51.440;6.938;2023-05-10T07:33:38;18.48;;;11.85;;
12435;SDS011;6282;51.440;6.938;2023-05-10T07:36:06;25.25;;;13.52;;
12435;SDS011;6282;51.440;6.938;2023-05-10T07:38:33;22.80;;;12.23;;
12435;SDS011;6282;51.440;6.938;2023-05-10T07:40:59;21.85;;;12.60;;
12435;SDS011;6282;51.440;6.938;2023-05-10T07:43:26;21.73;;;12.38;;
12435;SDS011;6282;51.440;6.938;2023-05-10T07:45:54;22.25;;;12.45;;
12435;SDS011;6282;51.440;6.938;2023-05-10T07:48:22;24.30;;;12.13;;
12435;SDS011;6282;51.440;6.938;2023-05-10T07:50:49;25.52;;;11.98;;
12435;SDS011;6282;51.440;6.938;2023-05-10T07:53:16;21.88;;;12.35;;
12435;SDS011;6282;51.440;6.938;2023-05-10T07:55:43;21.55;;;10.45;;
12435;SDS011;6282;51.440;6.938;2023-05-10T07:58:11;19.05;;;10.15;;
12435;SDS011;6282;51.440;6.938;2023-05-10T08:00:38;14.68;;;9.38;;
12435;SDS011;6282;51.440;6.938;2023-05-10T08:03:07;14.90;;;8.93;;
12435;SDS011;6282;51.440;6.938;2023-05-10T08:05:34;14.25;;;8.27;;
12435;SDS011;6282;51.440;6.938;2023-05-10T08:08:01;15.07;;;9.13;;
12435;SDS011;6282;51.440;6.938;2023-05-10T08:10:28;16.17;;;9.75;;
12435;SDS011;6282;51.440;6.938;2023-05-10T08:12:54;14.13;;;8.23;;
12435;SDS011;6282;51.440;6.938;2023-05-10T08:15:23;16.40;;;10.23;;
12435;SDS011;6282;51.440;6.938;2023-05-10T08:17:50;19.20;;;11.32;;
12435;SDS011;6282;51.440;6.938;2023-05-10T08:20:19;19.30;;;11.50;;
12435;SDS011;6282;51.440;6.938;2023-05-10T08:22:45;17.88;;;11.25;;
12435;SDS011;6282;51.440;6.938;2023-05-10T08:25:12;19.42;;;10.48;;
12435;SDS011;6282;51.440;6.938;2023-05-10T08:27:39;17.98;;;10.57;;
12435;SDS011;6282;51.440;6.938;2023-05-10T08:30:06;17.00;;;11.00;;
12435;SDS011;6282;51.440;6.938;2023-05-10T08:32:34;20.10;;;11.77;;
12435;SDS011;6282;51.440;6.938;2023-05-10T08:35:03;19.20;;;11.85;;
12435;SDS011;6282;51.440;6.938;2023-05-10T08:37:31;18.83;;;11.93;;
12435;SDS011;6282;51.440;6.938;2023-05-10T08:39:58;18.90;;;11.82;;
12435;SDS011;6282;51.440;6.938;2023-05-10T08:42:25;16.05;;;11.52;;
12435;SDS011;6282;51.440;6.938;2023-05-10T08:44:57;17.60;;;10.77;;
12435;SDS011;6282;51.440;6.938;2023-05-10T08:47:25;18.42;;;11.27;;
12435;SDS011;6282;51.440;6.938;2023-05-10T08:49:52;18.60;;;10.00;;
12435;SDS011;6282;51.440;6.938;2023-05-10T08:52:20;17.77;;;10.48;;
12435;SDS011;6282;51.440;6.938;2023-05-10T08:54:51;18.25;;;10.18;;
12435;SDS011;6282;51.440;6.938;2023-05-10T08:57:18;18.50;;;11.18;;
12435;SDS011;6282;51.440;6.938;2023-05-10T08:59:45;20.33;;;11.90;;
12435;SDS011;6282;51.440;6.938;2023-05-10T09:02:12;21.65;;;11.00;;
12435;SDS011;6282;51.440;6.938;2023-05-10T09:04:39;20.38;;;11.48;;
12435;SDS011;6282;51.440;6.938;2023-05-10T09:07:07;18.17;;;10.90;;
12435;SDS011;6282;51.440;6.938;2023-05-10T09:09:33;22.48;;;11.98;;
12435;SDS011;6282;51.440;6.938;2023-05-10T09:12:03;21.15;;;10.90;;
12435;SDS011;6282;51.440;6.938;2023-05-10T09:14:31;23.83;;;12.73;;
12435;SDS011;6282;51.440;6.938;2023-05-10T09:17:01;22.27;;;12.43;;
12435;SDS011;6282;51.440;6.938;2023-05-10T09:19:28;20.95;;;12.20;;
12435;SDS011;6282;51.440;6.938;2023-05-10T09:21:55;22.70;;;12.65;;
12435;SDS011;6282;51.440;6.938;2023-05-10T09:24:24;22.88;;;11.35;;
12435;SDS011;6282;51.440;6.938;2023-05-10T09:26:52;18.73;;;11.90;;
12435;SDS011;6282;51.440;6.938;2023-05-10T09:29:20;21.08;;;11.65;;
12435;SDS011;6282;51.440;6.938;2023-05-10T09:31:47;24.70;;;12.23;;
12435;SDS011;6282;51.440;6.938;2023-05-10T09:34:17;19.42;;;11.55;;
12435;SDS011;6282;51.440;6.938;2023-05-10T09:36:51;19.30;;;10.68;;
12435;SDS011;6282;51.440;6.938;2023-05-10T09:39:19;20.20;;;10.85;;
12435;SDS011;6282;51.440;6.938;2023-05-10T09:41:46;19.40;;;11.27;;
12435;SDS011;6282;51.440;6.938;2023-05-10T09:44:16;19.55;;;11.38;;
12435;SDS011;6282;51.440;6.938;2023-05-10T09:46:49;19.30;;;12.05;;
12435;SDS011;6282;51.440;6.938;2023-05-10T09:49:17;19.83;;;11.13;;
12435;SDS011;6282;51.440;6.938;2023-05-10T09:51:44;17.02;;;9.57;;
12435;SDS011;6282;51.440;6.938;2023-05-10T09:54:12;15.77;;;9.35;;
12435;SDS011;6282;51.440;6.938;2023-05-10T09:56:39;15.85;;;10.27;;
12435;SDS011;6282;51.440;6.938;2023-05-10T09:59:07;15.80;;;9.70;;
12435;SDS011;6282;51.440;6.938;2023-05-10T10:01:35;13.07;;;8.75;;
12435;SDS011;6282;51.440;6.938;2023-05-10T10:04:04;13.90;;;7.90;;
12435;SDS011;6282;51.440;6.938;2023-05-10T10:06:35;12.18;;;8.57;;
12435;SDS011;6282;51.440;6.938;2023-05-10T10:09:03;14.38;;;9.45;;
12435;SDS011;6282;51.440;6.938;2023-05-10T10:11:30;14.73;;;10.05;;
12435;SDS011;6282;51.440;6.938;2023-05-10T10:13:57;13.15;;;8.05;;
12435;SDS011;6282;51.440;6.938;2023-05-10T10:16:24;12.27;;;7.28;;
12435;SDS011;6282;51.440;6.938;2023-05-10T10:18:52;12.15;;;7.72;;
12435;SDS011;6282;51.440;6.938;2023-05-10T10:21:21;12.32;;;7.15;;
12435;SDS011;6282;51.440;6.938;2023-05-10T10:23:48;10.63;;;7.32;;
12435;SDS011;6282;51.440;6.938;2023-05-10T10:26:15;12.50;;;7.15;;
12435;SDS011;6282;51.440;6.938;2023-05-10T10:28:45;14.82;;;7.88;;
12435;SDS011;6282;51.440;6.938;2023-05-10T10:31:20;9.60;;;7.63;;
12435;SDS011;6282;51.440;6.938;2023-05-10T10:33:59;13.43;;;8.18;;
12435;SDS011;6282;51.440;6.938;2023-05-10T10:36:31;12.05;;;8.88;;
12435;SDS011;6282;51.440;6.938;2023-05-10T10:38:59;11.38;;;7.70;;
12435;SDS011;6282;51.440;6.938;2023-05-10T10:41:29;10.68;;;7.57;;
12435;SDS011;6282;51.440;6.938;2023-05-10T10:47:03;11.75;;;7.07;;
12435;SDS011;6282;51.440;6.938;2023-05-10T10:49:42;10.13;;;6.75;;
12435;SDS011;6282;51.440;6.938;2023-05-10T10:52:20;12.95;;;7.30;;
12435;SDS011;6282;51.440;6.938;2023-05-10T10:54:51;11.75;;;6.55;;
12435;SDS011;6282;51.440;6.938;2023-05-10T10:57:19;11.15;;;7.10;;
12435;SDS011;6282;51.440;6.938;2023-05-10T10:59:48;11.15;;;6.95;;
12435;SDS011;6282;51.440;6.938;2023-05-10T11:05:23;10.90;;;7.65;;
12435;SDS011;6282;51.440;6.938;2023-05-10T11:08:06;13.07;;;7.32;;
12435;SDS011;6282;51.440;6.938;2023-05-10T11:10:36;10.95;;;7.63;;
12435;SDS011;6282;51.440;6.938;2023-05-10T11:13:04;11.55;;;7.97;;
12435;SDS011;6282;51.440;6.938;2023-05-10T11:15:32;10.43;;;6.95;;
12435;SDS011;6282;51.440;6.938;2023-05-10T11:17:59;12.10;;;7.35;;
12435;SDS011;6282;51.440;6.938;2023-05-10T11:20:42;9.50;;;7.18;;
12435;SDS011;6282;51.440;6.938;2023-05-10T11:23:13;13.60;;;8.43;;
12435;SDS011;6282;51.440;6.938;2023-05-10T11:25:41;10.98;;;8.43;;
12435;SDS011;6282;51.440;6.938;2023-05-10T11:28:09;12.50;;;8.45;;
12435;SDS011;6282;51.440;6.938;2023-05-10T11:30:37;12.60;;;8.40;;
12435;SDS011;6282;51.440;6.938;2023-05-10T11:33:05;14.35;;;8.23;;
12435;SDS011;6282;51.440;6.938;2023-05-10T11:35:36;16.38;;;8.60;;
12435;SDS011;6282;51.440;6.938;2023-05-10T11:38:05;12.20;;;8.25;;
12435;SDS011;6282;51.440;6.938;2023-05-10T11:40:34;11.23;;;8.27;;
12435;SDS011;6282;51.440;6.938;2023-05-10T11:43:01;11.85;;;7.82;;
12435;SDS011;6282;51.440;6.938;2023-05-10T11:45:29;13.68;;;8.38;;
12435;SDS011;6282;51.440;6.938;2023-05-10T11:47:58;11.88;;;8.02;;
12435;SDS011;6282;51.440;6.938;2023-05-10T11:50:26;10.85;;;7.25;;
12435;SDS011;6282;51.440;6.938;2023-05-10T11:52:54;11.13;;;7.63;;
12435;SDS011;6282;51.440;6.938;2023-05-10T11:55:21;10.40;;;6.57;;
12435;SDS011;6282;51.440;6.938;2023-05-10T11:57:52;10.05;;;7.40;;
12435;SDS011;6282;51.440;6.938;2023-05-10T12:00:20;9.57;;;7.13;;
12435;SDS011;6282;51.440;6.938;2023-05-10T12:02:47;8.02;;;7.07;;
12435;SDS011;6282;51.440;6.938;2023-05-10T12:05:15;8.35;;;5.95;;
12435;SDS011;6282;51.440;6.938;2023-05-10T12:07:42;7.88;;;5.85;;
12435;SDS011;6282;51.440;6.938;2023-05-10T12:10:09;7.57;;;5.38;;
12435;SDS011;6282;51.440;6.938;2023-05-10T12:12:39;6.45;;;5.40;;
12435;SDS011;6282;51.440;6.938;2023-05-10T12:15:11;7.50;;;5.07;;
12435;SDS011;6282;51.440;6.938;2023-05-10T12:17:43;7.53;;;5.43;;
12435;SDS011;6282;51.440;6.938;2023-05-10T12:20:17;6.50;;;4.80;;
12435;SDS011;6282;51.440;6.938;2023-05-10T12:22:49;6.20;;;4.82;;
12435;SDS011;6282;51.440;6.938;2023-05-10T12:25:17;7.15;;;4.75;;
12435;SDS011;6282;51.440;6.938;2023-05-10T12:27:48;5.93;;;4.40;;
12435;SDS011;6282;51.440;6.938;2023-05-10T12:30:21;4.70;;;3.75;;
12435;SDS011;6282;51.440;6.938;2023-05-10T12:32:48;4.30;;;3.63;;
12435;SDS011;6282;51.440;6.938;2023-05-10T12:35:17;3.67;;;3.35;;
12435;SDS011;6282;51.440;6.938;2023-05-10T12:37:46;5.30;;;3.08;;
12435;SDS011;6282;51.440;6.938;2023-05-10T12:40:13;3.20;;;2.90;;
12435;SDS011;6282;51.440;6.938;2023-05-10T12:42:40;3.15;;;2.85;;
12435;SDS011;6282;51.440;6.938;2023-05-10T12:45:10;3.38;;;3.05;;
12435;SDS011;6282;51.440;6.938;2023-05-10T12:47:39;2.95;;;2.63;;
12435;SDS011;6282;51.440;6.938;2023-05-10T12:50:06;3.25;;;2.90;;
12435;SDS011;6282;51.440;6.938;2023-05-10T12:52:33;3.40;;;2.75;;
12435;SDS011;6282;51.440;6.938;2023-05-10T12:55:00;3.10;;;2.80;;
12435;SDS011;6282;51.440;6.938;2023-05-10T12:57:28;3.08;;;2.58;;
12435;SDS011;6282;51.440;6.938;2023-05-10T12:59:55;4.57;;;3.03;;
12435;SDS011;6282;51.440;6.938;2023-05-10T13:02:22;3.85;;;2.90;;
12435;SDS011;6282;51.440;6.938;2023-05-10T13:04:50;3.58;;;2.70;;
12435;SDS011;6282;51.440;6.938;2023-05-10T13:07:17;3.28;;;2.83;;
12435;SDS011;6282;51.440;6.938;2023-05-10T13:09:45;4.78;;;3.38;;
12435;SDS011;6282;51.440;6.938;2023-05-10T13:12:11;3.20;;;2.90;;
12435;SDS011;6282;51.440;6.938;2023-05-10T13:14:38;2.85;;;2.45;;
12435;SDS011;6282;51.440;6.938;2023-05-10T13:17:06;4.35;;;2.95;;
12435;SDS011;6282;51.440;6.938;2023-05-10T13:19:33;3.85;;;2.65;;
12435;SDS011;6282;51.440;6.938;2023-05-10T13:22:01;4.93;;;3.05;;
12435;SDS011;6282;51.440;6.938;2023-05-10T13:24:28;3.00;;;2.50;;
12435;SDS011;6282;51.440;6.938;2023-05-10T13:26:55;3.65;;;2.85;;
12435;SDS011;6282;51.440;6.938;2023-05-10T13:29:22;3.50;;;2.92;;
12435;SDS011;6282;51.440;6.938;2023-05-10T13:31:49;3.28;;;2.53;;
12435;SDS011;6282;51.440;6.938;2023-05-10T13:34:16;2.85;;;2.55;;
12435;SDS011;6282;51.440;6.938;2023-05-10T13:36:45;4.00;;;3.13;;
12435;SDS011;6282;51.440;6.938;2023-05-10T13:39:13;4.93;;;2.97;;
12435;SDS011;6282;51.440;6.938;2023-05-10T13:41:40;2.78;;;2.53;;
12435;SDS011;6282;51.440;6.938;2023-05-10T13:44:07;3.65;;;3.10;;
12435;SDS011;6282;51.440;6.938;2023-05-10T13:46:34;4.03;;;2.88;;
12435;SDS011;6282;51.440;6.938;2023-05-10T13:49:01;5.15;;;2.38;;
12435;SDS011;6282;51.440;6.938;2023-05-10T13:51:28;4.18;;;2.72;;
12435;SDS011;6282;51.440;6.938;2023-05-10T13:53:54;3.25;;;2.53;;
12435;SDS011;6282;51.440;6.938;2023-05-10T13:56:22;2.40;;;2.20;;
12435;SDS011;6282;51.440;6.938;2023-05-10T13:58:49;4.03;;;2.80;;
12435;SDS011;6282;51.440;6.938;2023-05-10T14:01:16;2.30;;;2.15;;
12435;SDS011;6282;51.440;6.938;2023-05-10T14:03:44;3.28;;;2.28;;
12435;SDS011;6282;51.440;6.938;2023-05-10T14:06:11;3.55;;;2.55;;
12435;SDS011;6282;51.440;6.938;2023-05-10T14:08:38;3.83;;;2.67;;
12435;SDS011;6282;51.440;6.938;2023-05-10T14:11:05;3.42;;;2.75;;
12435;SDS011;6282;51.440;6.938;2023-05-10T14:13:33;4.85;;;3.47;;
12435;SDS011;6282;51.440;6.938;2023-05-10T14:16:00;4.28;;;3.50;;
12435;SDS011;6282;51.440;6.938;2023-05-10T14:18:27;4.72;;;3.80;;
12435;SDS011;6282;51.440;6.938;2023-05-10T14:20:54;4.07;;;3.55;;
12435;SDS011;6282;51.440;6.938;2023-05-10T14:23:21;6.22;;;3.50;;
12435;SDS011;6282;51.440;6.938;2023-05-10T14:25:50;4.95;;;3.90;;
12435;SDS011;6282;51.440;6.938;2023-05-10T14:28:16;3.90;;;3.55;;
12435;SDS011;6282;51.440;6.938;2023-05-10T14:30:46;4.20;;;3.47;;
12435;SDS011;6282;51.440;6.938;2023-05-10T14:33:13;4.00;;;3.58;;
12435;SDS011;6282;51.440;6.938;2023-05-10T14:35:40;4.35;;;3.95;;
12435;SDS011;6282;51.440;6.938;2023-05-10T14:38:07;5.22;;;4.25;;
12435;SDS011;6282;51.440;6.938;2023-05-10T14:40:34;10.35;;;5.38;;
12435;SDS011;6282;51.440;6.938;2023-05-10T14:43:01;5.20;;;4.70;;
12435;SDS011;6282;51.440;6.938;2023-05-10T14:45:28;5.95;;;5.28;;
12435;SDS011;6282;51.440;6.938;2023-05-10T14:47:57;5.85;;;5.10;;
12435;SDS011;6282;51.440;6.938;2023-05-10T14:50:25;5.90;;;4.50;;
12435;SDS011;6282;51.440;6.938;2023-05-10T14:52:51;6.80;;;5.18;;
12435;SDS011;6282;51.440;6.938;2023-05-10T14:55:18;5.90;;;4.70;;
12435;SDS011;6282;51.440;6.938;2023-05-10T14:57:46;4.40;;;4.00;;
12435;SDS011;6282;51.440;6.938;2023-05-10T15:00:15;6.80;;;5.05;;
12435;SDS011;6282;51.440;6.938;2023-05-10T15:02:45;4.50;;;4.10;;